createdAt,value
2018-01-02T17:31:56.947Z,99398.98
2018-01-02T17:32:56.937Z,99389.05
2018-01-02T17:33:56.951Z,99395.05
2018-01-02T17:34:57.320Z,99388.29
2018-01-02T17:35:57.240Z,99387.4
2018-01-02T17:36:57.284Z,99390.46
2018-01-02T17:37:57.293Z,99385.51
2018-01-02T17:38:57.388Z,99387.33
2018-01-02T18:14:30.454Z,99334.78
2018-01-02T18:15:30.419Z,99335.41
2018-01-02T18:16:30.495Z,99339.38
2018-01-02T19:13:32.100Z,99255.87
2018-01-02T19:13:46.346Z,99262.23
2018-01-02T19:14:01.840Z,99259.38
2018-01-02T19:14:16.572Z,99259.38
2018-01-02T19:14:31.600Z,99260.95
2018-01-02T19:14:46.479Z,99257.08
2018-01-02T19:15:01.752Z,99253.99
2018-01-02T19:19:08.035Z,99253.54
2018-01-02T19:19:22.345Z,99254.12
2018-01-02T19:19:39.770Z,99251.94
2018-01-02T19:19:52.348Z,99248.56
2018-01-02T19:20:07.562Z,99253.15
2018-01-02T19:20:22.352Z,99252.2
2018-01-02T19:20:37.602Z,99251.05
2018-01-02T19:20:52.349Z,99250.84
2018-01-02T19:21:07.431Z,99250.36
2018-01-02T19:21:37.140Z,99255.64
2018-01-02T19:21:51.915Z,99251.45
2018-01-02T19:22:07.301Z,99251.59
2018-01-02T19:22:21.909Z,99260.88
2018-01-02T19:22:37.154Z,99253.54
2018-01-02T19:23:09.403Z,99251.66
2018-01-02T19:23:23.855Z,99260.44
2018-01-02T19:23:38.944Z,99255.76
2018-01-02T19:24:06.350Z,99263.15
2018-01-02T19:24:21.026Z,99259.74
2018-01-02T19:24:36.213Z,99261.09
2018-01-02T19:24:50.967Z,99258.63
2018-01-02T19:25:22.326Z,99258.23
2018-01-02T19:25:37.415Z,99259.18
2018-01-02T19:25:52.323Z,99256.29
2018-01-02T19:26:07.782Z,99256.62
2018-01-02T19:26:22.344Z,99256.37
2018-01-02T19:27:35.616Z,99255.23
2018-01-02T19:28:34.609Z,99252.52
2018-01-02T19:29:34.524Z,99251.7
2018-01-02T19:32:39.120Z,99252.02
2018-01-02T19:33:38.956Z,99251.05
2018-01-02T19:34:39.367Z,99244.8
2018-01-02T19:35:39.809Z,99242.55
2018-01-02T19:37:06.318Z,99240.7
2018-01-02T19:37:21.134Z,99235.96
2018-01-02T19:37:36.240Z,99231.2
2018-01-02T19:38:05.756Z,100046.5625
2018-01-02T19:38:20.652Z,100051.40625
2018-01-02T19:38:35.686Z,100048.625
2018-01-02T19:39:09.304Z,183.45827
2018-01-02T19:39:24.258Z,183.49178
2018-01-02T19:39:39.247Z,183.5677
2018-01-02T19:39:54.243Z,183.55873
2018-01-02T19:42:15.366Z,183.5451
2018-01-02T19:42:30.573Z,183.4882
2018-01-02T19:42:45.748Z,183.5259
2018-01-02T19:42:59.345Z,183.5364
2018-01-02T19:43:14.315Z,183.5364
2018-01-02T19:43:29.417Z,183.4634
2018-01-02T19:43:44.398Z,183.5259
2018-01-02T19:43:59.316Z,183.4866
2018-01-02T19:44:14.332Z,183.4885
2018-01-02T19:44:29.464Z,183.4937
2018-01-02T19:44:44.355Z,183.489
2018-01-02T19:44:59.359Z,183.5033
2018-01-02T19:45:14.323Z,183.519
2018-01-02T19:45:45.213Z,183.502
2018-01-02T19:45:59.087Z,183.4802
2018-01-02T19:46:13.708Z,183.5198
2018-01-02T19:47:34.806Z,183.4494
2018-01-02T19:48:36.356Z,183.4803
2018-01-02T19:49:33.444Z,183.3926
2018-01-02T19:50:33.124Z,183.4118
2018-01-02T19:51:34.138Z,183.4199
2018-01-02T19:52:33.336Z,183.4096
2018-01-02T19:53:33.168Z,183.4751
2018-01-02T19:54:33.507Z,183.4512
2018-01-02T19:55:33.003Z,183.4188
2018-01-02T19:56:34.394Z,183.3794
2018-01-02T19:57:33.547Z,183.3659
2018-01-02T20:00:54.322Z,99225.26
2018-01-02T20:01:05.534Z,99223.87
2018-01-02T20:01:15.173Z,99220.6
2018-01-02T20:01:24.274Z,99224.43
2018-01-02T20:01:34.810Z,99225.66
2018-01-02T20:01:45.858Z,99227.42
2018-01-02T20:01:54.277Z,99228.7
2018-01-02T20:02:06.475Z,99227.74
2018-01-02T20:02:15.144Z,99229.63
2018-01-02T20:02:24.281Z,99221.43
2018-01-02T20:02:34.535Z,99223.91
2018-01-02T20:02:44.378Z,99225.48
2018-01-02T20:04:50.548Z,992.1651
2018-01-02T20:05:00.891Z,992.1463
2018-01-02T20:05:10.749Z,992.1621
2018-01-02T20:06:18.436Z,99215.6
2018-01-02T20:06:28.357Z,99215.82
2018-01-02T20:06:38.831Z,99216.3
2018-01-02T20:06:48.374Z,99213.82
2018-01-02T20:06:58.371Z,99215.6
2018-01-02T20:07:09.028Z,99213.2
2018-01-02T20:07:18.369Z,99215.37
2018-01-02T20:07:28.413Z,99215.46
2018-01-02T20:07:38.505Z,99212.37
2018-01-02T20:07:48.370Z,99213.95
2018-01-02T20:07:58.384Z,99216.9
2018-01-02T20:08:08.607Z,99217.95
2018-01-02T20:08:18.396Z,99207.96
2018-01-02T20:08:28.363Z,99211.84
2018-01-02T20:08:38.426Z,99211.93
2018-01-02T20:08:48.365Z,99209.22
2018-01-02T20:08:58.383Z,99215.76
2018-01-02T20:09:09.292Z,99213.8
2018-01-02T20:09:26.920Z,992.0643
2018-01-02T20:09:36.868Z,992.1149
2018-01-02T20:09:47.610Z,992.0891
2018-01-02T20:09:56.788Z,992.053
2018-01-02T20:10:07.175Z,992.0599
2018-01-02T20:10:17.603Z,992.0747
2018-01-02T20:10:26.789Z,992.0934
2018-01-02T20:10:37.165Z,992.0852
2018-01-02T20:10:46.889Z,992.0599
2018-01-02T20:10:56.793Z,992.0168
2018-01-02T20:11:07.150Z,991.9958
2018-01-02T20:12:12.191Z,992.0103
2018-01-02T20:13:12.171Z,992.0643
2018-01-02T20:14:12.302Z,991.9646
2018-01-02T20:15:13.471Z,991.8979
2018-01-02T20:16:12.040Z,991.8552
2018-01-02T20:17:12.356Z,991.8323
2018-01-02T20:18:12.131Z,991.8304
2018-01-02T20:19:12.187Z,991.7935
2018-01-02T20:20:15.093Z,991.7734
2018-01-02T20:21:12.091Z,991.7938
2018-01-02T20:22:12.121Z,991.711
2018-01-02T20:23:12.221Z,991.6774
2018-01-02T20:24:12.242Z,991.6848
2018-01-02T20:25:12.186Z,991.723
2018-01-02T20:26:12.282Z,991.7141
2018-01-02T20:27:12.172Z,991.7035
2018-01-02T20:28:15.695Z,991.6923
2018-01-02T20:29:12.393Z,991.6717
2018-01-02T20:30:12.132Z,991.6094
2018-01-02T20:31:12.222Z,991.6144
2018-01-02T20:32:12.433Z,991.5648
2018-01-02T20:33:12.186Z,991.6068
2018-01-02T20:34:12.179Z,991.5624
2018-01-02T20:35:12.454Z,991.522
2018-01-02T20:36:13.067Z,991.5153
2018-01-02T20:37:12.415Z,991.4904
2018-01-02T20:38:12.297Z,991.4462
2018-01-02T20:39:13.173Z,991.4281
2018-01-02T20:40:12.609Z,991.4775
2018-01-02T20:41:13.406Z,991.4204
2018-01-02T20:42:12.553Z,991.3794
2018-01-02T20:43:17.561Z,991.3588
2018-01-02T20:44:12.582Z,991.3459
2018-01-02T20:45:12.092Z,991.3018
2018-01-02T20:46:12.262Z,991.3217
2018-01-02T20:47:12.926Z,991.2812
2018-01-02T20:48:12.602Z,991.2626
2018-01-02T20:49:12.130Z,991.2064
2018-01-02T20:50:12.457Z,991.1945
2018-01-02T20:51:12.193Z,991.1738
2018-01-02T20:53:15.667Z,991.0859
2018-01-02T20:54:15.107Z,991.0737
2018-01-02T20:55:15.628Z,991.0479
2018-01-02T20:56:16.185Z,991.0021
2018-01-02T20:57:15.274Z,991.0276
2018-01-02T20:58:18.118Z,991.0069
2018-01-02T20:59:15.350Z,990.9797
2018-01-02T21:00:15.088Z,990.944
2018-01-02T21:01:15.089Z,991.0042
2018-01-02T21:02:15.355Z,990.9932
2018-01-02T21:03:18.040Z,990.9304
2018-01-02T21:04:16.950Z,990.9016
2018-01-02T21:05:15.608Z,990.9349
2018-01-02T21:06:15.259Z,990.9311
2018-01-02T21:07:17.615Z,990.8345
2018-01-02T21:08:15.207Z,990.8223
2018-01-02T21:09:17.680Z,990.7996
2018-01-02T21:10:15.226Z,990.6476
2018-01-02T21:11:15.290Z,990.657
2018-01-02T21:12:16.219Z,990.5969
2018-01-02T21:13:16.570Z,990.5206
2018-01-02T21:14:15.220Z,990.5144
2018-01-02T21:15:16.625Z,990.476
2018-01-02T21:16:15.480Z,990.4112
2018-01-02T21:17:16.151Z,990.4888
2018-01-02T21:18:15.302Z,990.3448
2018-01-02T21:19:15.379Z,990.3718
2018-01-02T21:20:15.511Z,990.3086
2018-01-02T21:21:15.100Z,990.3141
2018-01-02T21:22:18.862Z,990.2944
2018-01-02T21:23:19.623Z,990.283
2018-01-02T21:24:15.340Z,990.1826
2018-01-02T21:25:16.285Z,990.2171
2018-01-02T21:26:15.532Z,990.1571
2018-01-02T21:27:15.663Z,990.1487
2018-01-02T21:28:16.872Z,990.1053
2018-01-02T21:29:16.767Z,990.0939
2018-01-02T21:30:16.602Z,990.1094
2018-01-02T21:31:15.630Z,990.0369
2018-01-02T21:32:15.546Z,990.0101
2018-01-02T21:33:15.111Z,990.0153
2018-01-02T21:34:15.515Z,990.038
2018-01-02T21:35:15.242Z,989.9852
2018-01-02T21:36:15.305Z,989.9093
2018-01-02T21:37:18.315Z,989.8802
2018-01-02T21:38:16.228Z,989.843
2018-01-02T21:39:19.817Z,989.8105
2018-01-02T21:40:15.846Z,989.8347
2018-01-02T21:41:15.591Z,989.7971
2018-01-02T21:42:15.423Z,989.7567
2018-01-02T21:43:15.676Z,989.7539
2018-01-02T21:44:15.530Z,989.8077
2018-01-02T21:45:17.679Z,989.7104
2018-01-02T21:46:15.236Z,989.7426
2018-01-02T21:47:15.537Z,989.7643
2018-01-02T21:48:15.296Z,989.696
2018-01-02T21:49:16.168Z,989.6939
2018-01-02T21:50:15.504Z,989.6555
2018-01-02T21:51:15.011Z,989.5852
2018-01-02T21:52:15.958Z,989.5904
2018-01-02T21:53:16.624Z,989.5231
2018-01-02T21:54:15.167Z,989.5224
2018-01-02T21:55:15.054Z,989.45
2018-01-02T21:56:16.689Z,989.3287
2018-01-02T21:57:15.402Z,989.3691
2018-01-02T21:58:17.270Z,989.2532
2018-01-02T21:59:15.181Z,989.2315
2018-01-02T22:00:15.277Z,989.2449
2018-01-02T22:01:15.868Z,989.1797
2018-01-02T22:02:15.740Z,989.131
2018-01-02T22:03:15.350Z,989.1259
2018-01-02T22:04:15.318Z,989.0256
2018-01-02T22:05:15.641Z,989.0068
2018-01-02T22:06:15.068Z,988.9634
2018-01-02T22:07:15.759Z,988.9365
2018-01-02T22:08:15.140Z,988.8527
2018-01-02T22:09:15.249Z,988.9199
2018-01-02T22:10:15.149Z,988.9034
2018-01-02T22:11:15.310Z,988.7957
2018-01-02T22:12:15.832Z,988.8416
2018-01-02T22:13:17.298Z,988.7929
2018-01-02T22:14:15.283Z,988.7712
2018-01-02T22:15:15.170Z,988.7443
2018-01-02T22:16:15.278Z,988.7464
2018-01-02T22:17:17.795Z,988.7464
2018-01-02T22:18:15.231Z,988.6843
2018-01-02T22:19:15.291Z,988.7029
2018-01-02T22:20:15.309Z,988.6895
2018-01-02T22:21:15.524Z,988.6543
2018-01-02T22:22:16.438Z,988.7134
2018-01-02T22:23:17.227Z,988.6378
2018-01-02T22:24:15.245Z,988.5974
2018-01-02T22:25:15.322Z,988.5726
2018-01-02T22:26:15.662Z,988.5052
2018-01-02T22:27:15.206Z,988.5457
2018-01-02T22:28:17.607Z,988.4404
2018-01-02T22:29:15.300Z,988.4218
2018-01-02T22:30:15.843Z,988.338
2018-01-02T22:31:25.952Z,988.3546
2018-01-02T22:32:15.331Z,988.3546
2018-01-02T22:33:15.165Z,988.2841
2018-01-02T22:34:15.294Z,988.281
2018-01-02T22:35:17.776Z,988.2324
2018-01-02T22:36:15.245Z,988.16
2018-01-02T22:37:16.037Z,988.1331
2018-01-02T22:38:15.584Z,988.103
2018-01-02T22:39:15.292Z,988.0596
2018-01-02T22:40:15.267Z,988.0089
2018-01-02T22:41:15.307Z,987.952
2018-01-02T22:42:18.772Z,988.0006
2018-01-02T22:43:15.664Z,987.9199
2018-01-02T22:44:17.235Z,987.863
2018-01-02T22:45:15.368Z,987.9034
2018-01-02T22:46:15.755Z,987.8682
2018-01-02T22:47:15.426Z,987.7523
2018-01-02T22:48:18.842Z,987.7709
2018-01-02T22:49:16.167Z,987.7419
2018-01-02T22:50:15.376Z,987.6768
2018-01-02T22:51:17.055Z,987.5877
2018-01-02T22:52:15.766Z,987.6471
2018-01-02T22:53:15.534Z,987.5798
2018-01-02T22:54:17.939Z,987.4722
2018-01-02T22:56:27.125Z,987.4288
2018-01-02T22:57:27.388Z,987.4557
2018-01-02T22:58:27.130Z,987.4826
2018-01-02T22:59:27.109Z,987.3884
2018-01-02T23:00:27.108Z,987.3801
2018-01-02T23:01:38.804Z,987.3315
2018-01-02T23:02:27.106Z,987.2374
2018-01-02T23:03:27.877Z,987.286
2018-01-02T23:04:27.318Z,987.2104
2018-01-02T23:05:27.116Z,987.1805
2018-01-02T23:06:27.113Z,987.1752
2018-01-02T23:07:27.122Z,987.1215
2018-01-02T23:08:27.154Z,987.0728
2018-01-02T23:09:27.121Z,987.0594
2018-01-02T23:10:27.116Z,986.9621
2018-01-02T23:11:27.119Z,986.9673
2018-01-02T23:12:27.129Z,986.9404
2018-01-02T23:13:27.143Z,986.8887
2018-01-02T23:14:27.119Z,986.8163
2018-01-02T23:15:27.141Z,986.7812
2018-01-02T23:16:27.130Z,986.7542
2018-01-02T23:17:27.126Z,986.687
2018-01-02T23:18:27.144Z,986.6518
2018-01-02T23:19:27.127Z,986.6032
2018-01-02T23:20:27.131Z,986.6166
2018-01-02T23:21:27.136Z,986.6005
2018-01-02T23:22:27.125Z,986.5793
2018-01-02T23:23:27.176Z,986.4877
2018-01-02T23:24:27.126Z,986.509
2018-01-02T23:25:27.139Z,986.4525
2018-01-02T23:26:27.145Z,986.4391
2018-01-02T23:27:27.162Z,986.4121
2018-01-02T23:28:27.154Z,986.3315
2018-01-02T23:29:27.134Z,986.2559
2018-01-02T23:30:27.132Z,986.1752
2018-01-02T23:31:27.138Z,986.1483
2018-01-02T23:32:27.137Z,986.1721
2018-01-02T23:33:27.171Z,986.0698
2018-01-02T23:34:27.142Z,986.0428
2018-01-02T23:35:27.141Z,986.0398
2018-01-02T23:36:27.149Z,985.9726
2018-01-02T23:37:27.145Z,985.9621
2018-01-02T23:38:27.164Z,985.9612
2018-01-02T23:39:27.199Z,985.9313
2018-01-02T23:40:27.148Z,985.8671
2018-01-02T23:41:27.140Z,985.8133
2018-01-02T23:42:27.692Z,985.7885
2018-01-02T23:43:27.167Z,985.8102
2018-01-02T23:44:27.198Z,985.7885
2018-01-02T23:45:31.525Z,985.6944
2018-01-02T23:46:39.279Z,985.6458
2018-01-02T23:47:27.166Z,985.6996
2018-01-02T23:48:27.152Z,985.6378
2018-01-02T23:49:27.158Z,985.5593
2018-01-02T23:50:27.167Z,985.5003
2018-01-02T23:51:27.162Z,985.4816
2018-01-02T23:52:27.151Z,985.4599
2018-01-02T23:53:27.210Z,985.3845
2018-01-02T23:54:27.150Z,985.3896
2018-01-02T23:55:27.153Z,985.3163
2018-01-02T23:56:27.162Z,985.3276
2018-01-02T23:57:27.159Z,985.3298
2018-01-02T23:58:27.180Z,985.2894
2018-01-02T23:59:27.163Z,985.214
